Home > Products > Valid Products > MTR

000
SAUS44 KMEG 222054
MTRTUP
METAR KTUP 222053Z AUTO 27004KT 10SM CLR 32/22 A3004 RMK AO2 LTG
DSNT E SLP166 T03170222 58014





000
SAUS44 KMEG 221954
MTRTUP
METAR KTUP 221953Z 21005KT 10SM SCT026 BKN033 30/23 A3006 RMK AO2
SLP175 T03000233





000
SAUS44 KMEG 221936
MTRTUP
SPECI KTUP 221934Z 21006KT 10SM SCT026 29/23 A3007 RMK AO2 T02940233
$





000
SAUS44 KMEG 221927
MTRTUP
SPECI KTUP 221926Z 23005KT 1 1/4SM HZ FEW024 FEW070 29/23 A3007 RMK
AO2 T02940233 $





000
SAUS44 KMEG 221854
MTRTUP
METAR KTUP 221853Z 19007KT 10SM FEW030 FEW044 BKN060 29/23 A3007 RMK
AO2 SLP178 T02940233





000
SAUS44 KMEG 221754
MTRTUP
METAR KTUP 221753Z 16006KT 10SM SCT029 SCT034 31/22 A3008 RMK AO2
SLP180 T03060222 10306 20222 55002





000
SAUS44 KMEG 221654
MTRTUP
METAR KTUP 221653Z 17008KT 10SM SCT024 BKN032 OVC050 28/23 A3008 RMK
AO2 SLP180 T02830228





000
SAUS44 KMEG 221647
MTRTUP
SPECI KTUP 221646Z 16005KT 10SM SCT024 BKN041 BKN050 28/23 A3008 RMK
AO2 T02830228





000
SAUS44 KMEG 221631
MTRTUP
SPECI KTUP 221630Z VRB05KT 10SM BKN024 BKN035 28/23 A3007 RMK AO2
T02830228





000
SAUS44 KMEG 221554
MTRTUP
METAR KTUP 221553Z VRB03KT 10SM CLR 29/22 A3007 RMK AO2 SLP179
T02940222





000
SAUS44 KMEG 221454
MTRTUP
METAR KTUP 221453Z 00000KT 10SM CLR 28/22 A3008 RMK AO2 SLP182
T02830222 50001





000
SAUS44 KMEG 221354
MTRTUP
METAR KTUP 221353Z 03004KT 9SM CLR 26/22 A3009 RMK AO2 SLP184
T02610217





000
SAUS44 KMEG 221254
MTRTUP
METAR KTUP 221253Z 09005KT 6SM HZ CLR 24/21 A3008 RMK AO2 SLP182
T02390211





000
SAUS44 KMEG 221154
MTRTUP
METAR KTUP 221153Z 00000KT 4SM BR CLR 22/20 A3008 RMK AO2 SLP181
T02220200 10228 20211 53015





000
SAUS44 KMEG 221054
MTRTUP
METAR KTUP 221053Z AUTO 04005KT 6SM BR CLR 21/19 A3006 RMK AO2
SLP175 T02110194





000
SAUS44 KMEG 220954
MTRTUP
METAR KTUP 220953Z AUTO 35003KT 6SM BR CLR 22/20 A3004 RMK AO2
SLP169 T02220200





000
SAUS44 KMEG 220854
MTRTUP
METAR KTUP 220853Z AUTO 00000KT 5SM BR CLR 22/20 A3003 RMK AO2
SLP166 T02170200 56004





000
SAUS44 KMEG 220754
MTRTUP
METAR KTUP 220753Z AUTO 00000KT 8SM CLR 23/20 A3004 RMK AO2 SLP167
T02280200





000
SAUS44 KMEG 220655
MTRTUP
METAR KTUP 220653Z AUTO 00000KT 7SM CLR 23/21 A3004 RMK AO2 SLP168
T02280206 TSNO





000
SAUS44 KMEG 220554
MTRTUP
METAR KTUP 220553Z AUTO 02003KT 8SM CLR 23/21 A3005 RMK AO2 SLP170
60000 T02280206 10289 20228 403000189 53004





000
SAUS44 KMEG 220454
MTRTUP
METAR KTUP 220453Z AUTO 03004KT 9SM CLR 23/21 A3004 RMK AO2 SLP169
T02330206





000
SAUS44 KMEG 220354
MTRTUP
METAR KTUP 220353Z AUTO 02004KT 10SM CLR 23/21 A3004 RMK AO2 SLP167
T02330206





000
SAUS44 KMEG 220254
MTRTUP
METAR KTUP 220253Z 00000KT 10SM CLR 25/21 A3004 RMK AO2 RAE0156
SLP166 P0000 60000 T02500206 53004





000
SAUS44 KMEG 220154
MTRTUP
METAR KTUP 220153Z 35003KT 10SM -RA CLR 26/21 A3003 RMK AO2 RAB47
SLP164 P0000 T02560206





000
SAUS44 KMEG 220054
MTRTUP
METAR KTUP 220053Z 35003KT 10SM CLR 27/20 A3003 RMK AO2 RAB05E14
SLP163 P0000 T02720200





000
SAUS44 KMEG 212354
MTRTUP
METAR KTUP 212353Z 36006KT 10SM CLR 29/19 A3002 RMK AO2 RAB05E14
SLP162 P0000 60000 T02890189 10300 20289 51001





000
SAUS44 KMEG 212255
MTRTUP
METAR KTUP 212253Z 01004KT 10SM CLR 29/19 A3002 RMK AO2 SLP161
T02940189





000
SAUS44 KMEG 212154
MTRTUP
METAR KTUP 212153Z 05005KT 10SM CLR 30/18 A3003 RMK AO2 SLP163
T03000183





000
SAUS44 KMEG 212054
MTRTUP
METAR KTUP 212053Z AUTO 05004KT 10SM CLR 30/18 A3002 RMK AO2
RAB38E47 SLP160 P0000 60000 T03000178 56019





000
SAUS44 KMEG 211954
MTRTUP
METAR KTUP 211953Z AUTO 06005KT 10SM CLR 30/18 A3003 RMK AO2 SLP165
T03000183





000
SAUS44 KMEG 211854
MTRTUP
METAR KTUP 211853Z AUTO 08007KT 10SM FEW045 29/17 A3005 RMK AO2
SLP171 T02940172 $





000
SAUS44 KMEG 211754
MTRTUP
METAR KTUP 211753Z AUTO 06007KT 10SM SCT042 29/19 A3007 RMK AO2
SLP179 T02890189 10294 20206 $





000
SAUS44 KMEG 211654
MTRTUP
METAR KTUP 211653Z AUTO 02008KT 10SM FEW035 FEW055 28/19 A3008 RMK
AO2 SLP182 T02780194 $





000
SAUS44 KMEG 211554
MTRTUP
METAR KTUP 211553Z 05006KT 10SM CLR 27/20 A3008 RMK AO2 SLP182
T02720200





000
SAUS44 KMEG 211454
MTRTUP
METAR KTUP 211453Z 07005KT 10SM CLR 26/21 A3009 RMK AO2 SLP184
T02610206 50008





000
SAUS44 KMEG 211354
MTRTUP
METAR KTUP 211353Z 04006KT 8SM CLR 24/20 A3009 RMK AO2 SLP185
T02440200





000
SAUS44 KMEG 211254
MTRTUP
METAR KTUP 211253Z 03006KT 5SM BR CLR 22/20 A3008 RMK AO2 SLP181
T02170200





000
SAUS44 KMEG 211154
MTRTUP
METAR KTUP 211153Z 00000KT 4SM BR CLR 20/19 A3007 RMK AO2 SLP177
T02000189 10217 20189 53017





000
SAUS44 KMEG 211124
MTRTUP
SPECI KTUP 211123Z 00000KT 4SM BR CLR 19/18 A3006 RMK AO2 T01890183





000
SAUS44 KMEG 211110
MTRTUP
SPECI KTUP 211109Z 00000KT 2SM BR CLR 19/18 A3005 RMK AO2 T01890183





000
SAUS44 KMEG 211054
MTRTUP
METAR KTUP 211053Z 04003KT 5SM BR CLR 19/18 A3005 RMK AO2 SLP172
T01890183





000
SAUS44 KMEG 211006
MTRTUP
SPECI KTUP 211005Z AUTO 05003KT 3SM BR CLR 19/18 A3003 RMK AO2
T01890183





000
SAUS44 KMEG 210954
MTRTUP
METAR KTUP 210953Z AUTO 04003KT 1 3/4SM BR CLR 19/18 A3002 RMK AO2
SLP163 T01940183





000
SAUS44 KMEG 210944
MTRTUP
SPECI KTUP 210943Z AUTO 00000KT 3SM BR CLR 20/19 A3002 RMK AO2
T02000189





000
SAUS44 KMEG 210935
MTRTUP
SPECI KTUP 210934Z AUTO 00000KT 1 3/4SM BR CLR 20/19 A3002 RMK AO2
T02000189





000
SAUS44 KMEG 210854
MTRTUP
METAR KTUP 210853Z AUTO 00000KT 4SM BR CLR 20/19 A3001 RMK AO2
SLP160 T02000189 55001





000
SAUS44 KMEG 210842
MTRTUP
SPECI KTUP 210841Z AUTO 00000KT 3SM BR CLR 20/19 A3001 RMK AO2
T02000189





000
SAUS44 KMEG 210833
MTRTUP
SPECI KTUP 210832Z AUTO 00000KT 1 3/4SM BR CLR 20/19 A3001 RMK AO2
T02000189





000
SAUS44 KMEG 210754
MTRTUP
METAR KTUP 210753Z AUTO 35003KT 6SM BR CLR 21/19 A3001 RMK AO2
SLP157 T02060194





000
SAUS44 KMEG 210654
MTRTUP
METAR KTUP 210653Z AUTO 00000KT 7SM CLR 21/20 A3001 RMK AO2 SLP158
T02110200





000
SAUS44 KMEG 210554
MTRTUP
METAR KTUP 210553Z AUTO 09003KT 10SM CLR 22/21 A3002 RMK AO2 SLP160
T02170206 10272 20206 402890178 53004





000
SAUS44 KMEG 210454
MTRTUP
METAR KTUP 210453Z AUTO 04006KT 10SM CLR 21/20 A3001 RMK AO2 SLP156
T02110200





000
SAUS44 KMEG 210354
MTRTUP
METAR KTUP 210353Z AUTO 00000KT 10SM CLR 22/20 A3001 RMK AO2 SLP157
T02170200





000
SAUS44 KMEG 210254
MTRTUP
METAR KTUP 210253Z 00000KT 10SM CLR 22/20 A3000 RMK AO2 SLP156
T02220200 53001





000
SAUS44 KMEG 210154
MTRTUP
METAR KTUP 210153Z 00000KT 10SM CLR 24/21 A3000 RMK AO2 SLP154
T02390206





000
SAUS44 KMEG 210054
MTRTUP
METAR KTUP 210053Z 00000KT 10SM CLR 26/20 A3000 RMK AO2 SLP154
T02560200





000
SAUS44 KMEG 202354
MTRTUP
METAR KTUP 202353Z 00000KT 10SM FEW070 27/19 A3000 RMK AO2 SLP155
T02720194 10289 20267 55001





000
SAUS44 KMEG 202254
MTRTUP
METAR KTUP 202253Z 00000KT 10SM CLR 28/18 A3000 RMK AO2 SLP154
T02830183





000
SAUS44 KMEG 202154
MTRTUP
METAR KTUP 202153Z AUTO 00000KT 10SM FEW065 28/18 A3000 RMK AO2
SLP156 T02780183





000
SAUS44 KMEG 202055
MTRTUP
METAR KTUP 202053Z AUTO 05007KT 10SM SCT039 SCT060 28/19 A3000 RMK
AO2 SLP157 T02780189 58007





000
SAUS44 KMEG 201954
MTRTUP
METAR KTUP 201953Z AUTO 00000KT 10SM SCT042 BKN055 28/18 A3002 RMK
AO2 SLP161 T02830183





000
SAUS44 KMEG 201854
MTRTUP
METAR KTUP 201853Z 00000KT 10SM SCT036 SCT046 BKN055 28/18 A3002 RMK
AO2 SLP161 T02780183





000
SAUS44 KMEG 201754
MTRTUP
METAR KTUP 201753Z 04007KT 10SM CLR 28/19 A3002 RMK AO2 SLP163
T02780189 10278 20189 58013





000
SAUS44 KMEG 201655
MTRTUP
METAR KTUP 201653Z VRB04KT 10SM FEW033 BKN050 27/19 A3004 RMK AO2
SLP170 T02720189





000
SAUS44 KMEG 201554
MTRTUP
METAR KTUP 201553Z 03003KT 10SM FEW038 25/20 A3006 RMK AO2 SLP174
T02500200





000
SAUS44 KMEG 201538
MTRTUP
SPECI KTUP 201537Z 04004KT 10SM FEW017 SCT024 26/20 A3006 RMK AO2
T02560200





000
SAUS44 KMEG 201454
MTRTUP
METAR KTUP 201453Z 00000KT 10SM BKN015 25/20 A3006 RMK AO2 SLP177
T02500200 51002





000
SAUS44 KMEG 201451
MTRTUP
SPECI KTUP 201450Z 00000KT 10SM BKN015 25/20 A3006 RMK AO2





000
SAUS44 KMEG 201439
MTRTUP
SPECI KTUP 201438Z 00000KT 10SM SCT011 SCT017 24/20 A3006 RMK AO2
T02440200





000
SAUS44 KMEG 201430
MTRTUP
SPECI KTUP 201428Z 00000KT 10SM BKN011 OVC016 24/20 A3006 RMK AO2
T02390200





000
SAUS44 KMEG 201354
MTRTUP
METAR KTUP 201353Z 00000KT 10SM BKN006 23/21 A3006 RMK AO2 SLP176
T02330206





000
SAUS44 KMEG 201349
MTRTUP
SPECI KTUP 201348Z 00000KT 10SM BKN006 23/21 A3006 RMK AO2





000
SAUS44 KMEG 201316
MTRTUP
SPECI KTUP 201314Z 00000KT 10SM BKN004 22/20 A3006 RMK AO2 T02220200





000
SAUS44 KMEG 201255
MTRTUP
METAR KTUP 201253Z 00000KT 7SM SCT002 SCT017 21/20 A3006 RMK AO2
SLP175 T02110200





000
SAUS44 KMEG 201251
MTRTUP
SPECI KTUP 201249Z 00000KT 7SM SCT002 SCT017 21/19 A3006 RMK AO2





000
SAUS44 KMEG 201222
MTRTUP
SPECI KTUP 201220Z 00000KT 4SM BR BKN002 19/19 A3005 RMK AO2
T01940189





000
SAUS44 KMEG 201213
MTRTUP
SPECI KTUP 201211Z 00000KT 2SM BR OVC002 19/19 A3005 RMK AO2
T01940189





000
SAUS44 KMEG 201154
MTRTUP
METAR KTUP 201153Z 00000KT 1/4SM FG BKN002 OVC049 19/18 A3004 RMK
AO2 SLP170 T01890183 10189 20178 53009





000
SAUS44 KMEG 201140
MTRTUP
SPECI KTUP 201139Z 00000KT 1/2SM FG BKN002 BKN048 OVC110 19/18 A3004
RMK AO2 T01890178





000
SAUS44 KMEG 201121
MTRTUP
SPECI KTUP 201120Z 00000KT 1 1/2SM BR BKN002 OVC016 19/18 A3003 RMK
AO2 T01890183





000
SAUS44 KMEG 201054
MTRTUP
METAR KTUP 201053Z 00000KT 1/2SM FG BKN002 OVC016 19/18 A3003 RMK
AO2 SLP164 T01890178





000
SAUS44 KMEG 201049
MTRTUP
SPECI KTUP 201048Z 00000KT 1/2SM FG BKN002 OVC016 19/18 A3003 RMK
AO2





000
SAUS44 KMEG 201036
MTRTUP
SPECI KTUP 201035Z AUTO 00000KT 1SM BR BKN002 OVC017 19/18 A3002 RMK
AO2 T01890178





000
SAUS44 KMEG 201033
MTRTUP
SPECI KTUP 201032Z AUTO 00000KT 3/4SM BR SCT002 OVC017 19/18 A3002
RMK AO2 T01890178





000
SAUS44 KMEG 200954
MTRTUP
METAR KTUP 200953Z AUTO 00000KT 1/4SM FG VV002 19/18 A3002 RMK AO2
SLP161 T01890178





000
SAUS44 KMEG 200927
MTRTUP
SPECI KTUP 200926Z AUTO 00000KT 1/2SM FG OVC002 18/18 A3001 RMK AO2
T01830178





000
SAUS44 KMEG 200920
MTRTUP
SPECI KTUP 200919Z AUTO 00000KT 1SM BR BKN002 OVC014 19/18 A3001 RMK
AO2 T01890178





000
SAUS44 KMEG 200913
MTRTUP
SPECI KTUP 200912Z AUTO 00000KT 2SM BR BKN002 OVC014 19/18 A3001 RMK
AO2 T01890178





000
SAUS44 KMEG 200901
MTRTUP
SPECI KTUP 200900Z AUTO 00000KT 1 3/4SM BR FEW002 OVC014 19/18 A3000
RMK AO2 T01890178





000
SAUS44 KMEG 200854
MTRTUP
METAR KTUP 200853Z AUTO 00000KT 3SM BR OVC014 19/18 A3000 RMK AO2
SLP155 T01890178 56004





000
SAUS44 KMEG 200852
MTRTUP
SPECI KTUP 200851Z AUTO 00000KT 3SM BR OVC014 19/18 A3000 RMK AO2





000
SAUS44 KMEG 200831
MTRTUP
SPECI KTUP 200830Z AUTO 00000KT 2SM BR FEW005 OVC013 18/18 A3000 RMK
AO2 T01830178





000
SAUS44 KMEG 200824
MTRTUP
SPECI KTUP 200823Z AUTO 00000KT 3/4SM BR FEW001 BKN007 OVC014 18/17
A3000 RMK AO2 T01830172





000
SAUS44 KMEG 200815
MTRTUP
SPECI KTUP 200813Z AUTO 00000KT 1 1/4SM BR FEW001 BKN005 BKN014
18/17 A3000 RMK AO2 T01830172





000
SAUS44 KMEG 200806
MTRTUP
SPECI KTUP 200804Z AUTO 00000KT 1 3/4SM BR BKN001 BKN046 18/17 A3000
RMK AO2 T01830172





000
SAUS44 KMEG 200754
MTRTUP
METAR KTUP 200753Z AUTO 00000KT 1SM BR SCT001 SCT046 18/17 A3000 RMK
AO2 SLP154 T01780172





000
SAUS44 KMEG 200750
MTRTUP
SPECI KTUP 200748Z AUTO 00000KT 3/4SM BR SCT001 SCT046 18/17 A3000
RMK AO2





000
SAUS44 KMEG 200745
MTRTUP
SPECI KTUP 200744Z AUTO 00000KT 1SM BR SCT001 BKN018 BKN046 19/18
A3000 RMK AO2 T01890178





000
SAUS44 KMEG 200654
MTRTUP
METAR KTUP 200653Z AUTO 23003KT 1/2SM FG BKN001 OVC049 18/18 A3001
RMK AO2 SLP159 T01830178





000
SAUS44 KMEG 200638
MTRTUP
SPECI KTUP 200637Z AUTO 00000KT 1/4SM FG VV001 19/18 A3002 RMK AO2
T01890178





000
SAUS44 KMEG 200554
MTRTUP
METAR KTUP 200553Z AUTO 21004KT 1/2SM FG VV002 19/18 A3001 RMK AO2
SLP159 T01890178 10228 20183 402390183 53004





000
SAUS44 KMEG 200549
MTRTUP
SPECI KTUP 200548Z AUTO 21004KT 1/2SM FG VV002 18/17 A3001 RMK AO2





000
SAUS44 KMEG 200540
MTRTUP
SPECI KTUP 200539Z AUTO 22003KT 1/2SM FG VV001 19/18 A3001 RMK AO2
T01890178





000
SAUS44 KMEG 200526
MTRTUP
SPECI KTUP 200525Z AUTO 00000KT 3/4SM BR VV002 19/18 A3000 RMK AO2
T01890183





000
SAUS44 KMEG 200522
MTRTUP
SPECI KTUP 200521Z AUTO 00000KT 2SM BR OVC002 19/18 A3000 RMK AO2
T01890183





000
SAUS44 KMEG 200516
MTRTUP
SPECI KTUP 200515Z AUTO 00000KT 3/4SM BR VV002 19/18 A3000 RMK AO2
T01940183





000
SAUS44 KMEG 200507
MTRTUP
SPECI KTUP 200506Z AUTO 00000KT 1 1/2SM BR BKN002 19/18 A3000 RMK
AO2 VIS 1/2V5 T01940183





000
SAUS44 KMEG 200505
MTRTUP
SPECI KTUP 200504Z AUTO 00000KT 3SM BR BKN002 19/18 A3000 RMK AO2
T01890183





000
SAUS44 KMEG 200454
MTRTUP
METAR KTUP 200453Z AUTO 00000KT 6SM BR SCT002 19/18 A3000 RMK AO2
SLP155 T01940183





000
SAUS44 KMEG 200452
MTRTUP
SPECI KTUP 200451Z AUTO 00000KT 3SM BR BKN002 19/18 A3000 RMK AO2





000
SAUS44 KMEG 200445
MTRTUP
SPECI KTUP 200444Z AUTO 00000KT 1/2SM FG VV002 19/18 A3000 RMK AO2
T01940183





000
SAUS44 KMEG 200438
MTRTUP
SPECI KTUP 200437Z AUTO 00000KT 1SM BR VV002 19/19 A3000 RMK AO2
T01940189





000
SAUS44 KMEG 200436
MTRTUP
SPECI KTUP 200435Z AUTO 00000KT 2 1/2SM BR FEW003 19/19 A3000 RMK
AO2 T01940189





000
SAUS44 KMEG 200433
MTRTUP
SPECI KTUP 200431Z AUTO 00000KT 3SM BR CLR 20/19 A3000 RMK AO2
T02000189





000
SAUS44 KMEG 200406
MTRTUP
SPECI KTUP 200405Z AUTO 00000KT 1 1/2SM BR CLR 20/19 A3000 RMK AO2
T02000189





000
SAUS44 KMEG 200354
MTRTUP
METAR KTUP 200353Z AUTO 00000KT 6SM BR CLR 20/19 A3000 RMK AO2
SLP155 T02000189





000
SAUS44 KMEG 200344
MTRTUP
SPECI KTUP 200343Z AUTO 00000KT 2SM BR CLR 20/19 A3000 RMK AO2
T02000189





000
SAUS44 KMEG 200154
MTRTUP
METAR KTUP 200153Z 34003KT 10SM OVC046 22/20 A3001 RMK AO2 SLP158
T02220200





000
SAUS44 KMEG 200054
MTRTUP
METAR KTUP 200053Z 23003KT 10SM OVC041 22/20 A3001 RMK AO2 SLP160
T02220200





000
SAUS44 KMEG 192354
MTRTUP
METAR KTUP 192353Z 00000KT 10SM OVC037 23/20 A3001 RMK AO2 SLP158
T02280200 10239 20222 53002





000
SAUS44 KMEG 192338
MTRTUP
SPECI KTUP 192337Z 00000KT 10SM SCT023 OVC037 23/20 A3000 RMK AO2
T02280200





000
SAUS44 KMEG 192254
MTRTUP
METAR KTUP 192253Z 01003KT 8SM OVC025 23/20 A3000 RMK AO2 SLP155
T02280200





    US Dept of Commerce
    National Oceanic and Atmospheric Administration
    National Weather Service
    1325 East West Highway
    Silver Spring, MD 20910
    Page Author: NWS Internet Services Team
Disclaimer
Information Quality
Credits
Glossary
Privacy Policy
Freedom of Information Act (FOIA)
About Us
Career Opportunities